Time;durP1;ratioP1;P1;durP2;ratioP2;P2;SDS_P1;SDS_P2;PMS_P1;PMS_P2;Temp;Humidity;BMP_temperature;BMP_pressure;BME280_temperature;BME280_humidity;BME280_pressure;Samples;Min_cycle;Max_cycle;Signal;HPM_P1;HPM_P2
2021/04/11 00:00:10;;;;;;;9.25;8.45;;;5.00;95.70;;;;;;4994623;28;20382;-66
2021/04/11 00:02:36;;;;;;;5.47;5.00;;;5.00;95.70;;;;;;4995054;28;20026;-67
2021/04/11 00:05:03;;;;;;;19.13;17.52;;;5.00;95.80;;;;;;4994302;28;20026;-66
2021/04/11 00:07:29;;;;;;;5.75;5.25;;;5.00;95.90;;;;;;4995198;28;20023;-65
2021/04/11 00:09:55;;;;;;;7.03;6.43;;;5.00;95.80;;;;;;4994429;28;20029;-67
2021/04/11 00:12:20;;;;;;;16.63;14.63;;;5.00;95.80;;;;;;4994204;28;20019;-67
2021/04/11 00:14:46;;;;;;;31.85;28.73;;;5.00;95.70;;;;;;4994215;28;20387;-68
2021/04/11 00:17:11;;;;;;;23.38;20.92;;;4.90;95.60;;;;;;4994611;28;20023;-67
2021/04/11 00:19:37;;;;;;;5.88;5.28;;;4.90;95.50;;;;;;4994017;28;20038;-67
2021/04/11 00:22:02;;;;;;;5.38;4.88;;;4.80;95.70;;;;;;4994324;28;20062;-67
2021/04/11 00:24:28;;;;;;;14.02;12.68;;;4.80;95.90;;;;;;4994600;28;20030;-67
2021/04/11 00:26:54;;;;;;;6.72;6.13;;;4.80;95.90;;;;;;4993302;28;20033;-66
2021/04/11 00:29:19;;;;;;;6.57;5.97;;;4.90;95.90;;;;;;4993907;28;20026;-66
2021/04/11 00:31:45;;;;;;;9.38;8.35;;;4.90;95.90;;;;;;4993893;28;20018;-66
2021/04/11 00:34:10;;;;;;;6.05;5.10;;;5.00;95.80;;;;;;4993753;28;20364;-66
2021/04/11 00:36:36;;;;;;;5.97;5.38;;;5.00;95.60;;;;;;4994159;28;20030;-65
2021/04/11 00:39:02;;;;;;;5.78;5.25;;;5.00;95.70;;;;;;4994043;28;20018;-66
2021/04/11 00:41:30;;;;;;;13.00;9.93;;;5.00;95.60;;;;;;4993450;28;20597;-67
2021/04/11 00:43:57;;;;;;;31.02;22.75;;;5.00;95.60;;;;;;4993637;28;20092;-66
2021/04/11 00:46:58;;;;;;;7.25;6.65;;;5.00;95.50;;;;;;4994054;28;20022;-67
2021/04/11 00:49:32;;;;;;;4.35;3.97;;;5.00;95.40;;;;;;4989469;28;20137;-65
2021/04/11 00:51:58;;;;;;;7.75;7.15;;;4.90;95.40;;;;;;4993872;28;20030;-65
2021/04/11 00:54:24;;;;;;;5.65;5.15;;;4.90;95.40;;;;;;4991852;28;20037;-66
2021/04/11 00:56:50;;;;;;;5.20;4.63;;;4.90;95.40;;;;;;4993297;28;20026;-66
2021/04/11 00:59:18;;;;;;;5.10;4.70;;;4.80;95.30;;;;;;4993929;28;20019;-69
2021/04/11 01:01:44;;;;;;;5.50;5.00;;;4.80;95.50;;;;;;4992764;28;20529;-68
2021/04/11 01:04:14;;;;;;;9.40;8.70;;;4.80;95.50;;;;;;4993767;28;20053;-68
2021/04/11 01:06:56;;;;;;;12.85;7.93;;;4.80;95.50;;;;;;4993631;28;20030;-67
2021/04/11 01:09:32;;;;;;;8.23;6.10;;;4.90;95.60;;;;;;4991836;28;20018;-67
2021/04/11 01:12:00;;;;;;;13.85;12.45;;;4.90;95.50;;;;;;4993350;28;20080;-67
2021/04/11 01:14:29;;;;;;;6.57;5.88;;;4.90;95.40;;;;;;4993640;28;20093;-66
2021/04/11 01:16:56;;;;;;;11.30;10.38;;;4.80;95.50;;;;;;4992841;28;20025;-66
2021/04/11 01:19:32;;;;;;;9.02;8.07;;;4.80;95.40;;;;;;4993342;28;20558;-66
2021/04/11 01:22:23;;;;;;;15.35;13.98;;;4.70;95.30;;;;;;4993427;28;20030;-66
2021/04/11 01:24:54;;;;;;;8.75;6.13;;;4.70;95.40;;;;;;4993121;28;20026;-66
2021/04/11 01:27:24;;;;;;;6.33;5.83;;;4.60;95.50;;;;;;4993430;28;20471;-66
2021/04/11 01:29:51;;;;;;;22.95;20.70;;;4.60;95.50;;;;;;4992266;28;20042;-67
2021/04/11 01:32:17;;;;;;;6.68;6.07;;;4.60;95.60;;;;;;4993275;28;20054;-66
2021/04/11 01:34:43;;;;;;;10.32;9.38;;;4.70;95.60;;;;;;4993143;28;20081;-66
2021/04/11 01:37:10;;;;;;;6.22;5.63;;;4.70;95.50;;;;;;4992528;28;20495;-66
2021/04/11 01:39:40;;;;;;;6.47;5.75;;;4.70;95.50;;;;;;4993158;28;20092;-67
2021/04/11 01:42:06;;;;;;;14.80;13.40;;;4.70;95.50;;;;;;4992850;28;20015;-66
2021/04/11 01:44:34;;;;;;;6.20;5.57;;;4.60;95.40;;;;;;4992290;28;20060;-66
2021/04/11 01:47:00;;;;;;;9.48;8.52;;;4.60;95.50;;;;;;4992672;28;20463;-66
2021/04/11 01:49:27;;;;;;;5.80;5.30;;;4.60;95.50;;;;;;4992984;28;20058;-66
2021/04/11 01:52:23;;;;;;;7.15;6.50;;;4.60;95.40;;;;;;4991981;28;20030;-65
2021/04/11 01:54:49;;;;;;;19.70;18.00;;;4.50;95.40;;;;;;4992047;28;20502;-67
2021/04/11 01:57:24;;;;;;;5.75;5.25;;;4.50;95.40;;;;;;4992938;28;20105;-67
2021/04/11 01:59:50;;;;;;;9.30;8.32;;;4.50;95.60;;;;;;4992615;28;20031;-65
2021/04/11 02:02:18;;;;;;;5.38;4.97;;;4.60;95.60;;;;;;4993099;28;20073;-65
2021/04/11 02:04:44;;;;;;;6.55;4.72;;;4.60;95.50;;;;;;4991930;28;20034;-66
2021/04/11 02:07:12;;;;;;;11.40;10.25;;;4.60;95.50;;;;;;4992817;28;20060;-66
2021/04/11 02:09:42;;;;;;;5.45;4.95;;;4.60;95.50;;;;;;4992901;28;20030;-66
2021/04/11 02:12:09;;;;;;;10.27;9.20;;;4.60;95.60;;;;;;4991948;28;20026;-65
2021/04/11 02:14:39;;;;;;;15.77;14.60;;;4.70;95.70;;;;;;4991479;28;20034;-66
2021/04/11 02:17:05;;;;;;;5.68;4.28;;;4.70;95.90;;;;;;4991092;28;20521;-66
2021/04/11 02:19:30;;;;;;;38.85;34.90;;;4.60;95.50;;;;;;4990792;28;20433;-66
2021/04/11 02:22:34;;;;;;;4.90;4.22;;;4.70;95.50;;;;;;4992391;28;20056;-67
2021/04/11 02:25:00;;;;;;;21.85;19.70;;;4.60;95.40;;;;;;4980679;28;20034;-65
2021/04/11 02:27:27;;;;;;;5.88;5.38;;;4.60;95.50;;;;;;4990817;28;20402;-66
2021/04/11 02:29:53;;;;;;;13.90;12.18;;;4.60;95.60;;;;;;4991128;28;20435;-66
2021/04/11 02:32:19;;;;;;;5.22;4.72;;;4.60;95.70;;;;;;4991391;28;20022;-65
2021/04/11 02:34:45;;;;;;;7.63;5.78;;;4.60;95.70;;;;;;4991508;28;20030;-66
2021/04/11 02:37:29;;;;;;;5.88;5.38;;;4.60;95.80;;;;;;4992581;28;20015;-67
2021/04/11 02:39:57;;;;;;;5.97;5.47;;;4.60;95.80;;;;;;4991590;28;20530;-66
2021/04/11 02:42:34;;;;;;;19.17;17.50;;;4.60;95.80;;;;;;4992736;28;20030;-67
2021/04/11 02:45:16;;;;;;;6.03;4.88;;;4.60;95.70;;;;;;4992337;28;20109;-67
2021/04/11 02:47:42;;;;;;;13.95;12.75;;;4.60;95.90;;;;;;4991587;28;20515;-67
2021/04/11 02:50:09;;;;;;;5.78;5.28;;;4.60;95.90;;;;;;4992222;28;20038;-66
2021/04/11 02:53:08;;;;;;;8.00;7.32;;;4.60;95.90;;;;;;4994241;28;20497;-67
2021/04/11 02:55:38;;;;;;;6.95;5.00;;;4.70;96.00;;;;;;4994081;28;20446;-67
2021/04/11 02:58:03;;;;;;;4.82;4.00;;;4.70;95.90;;;;;;4995736;28;20892;-67
2021/04/11 03:00:33;;;;;;;5.10;4.57;;;4.60;96.00;;;;;;4996170;28;20145;-67
2021/04/11 03:02:59;;;;;;;5.25;4.75;;;4.70;96.20;;;;;;4995507;28;20014;-67
2021/04/11 03:05:26;;;;;;;16.90;12.43;;;4.70;96.00;;;;;;4995990;28;20379;-66
2021/04/11 03:07:57;;;;;;;4.60;4.20;;;4.70;96.00;;;;;;4994621;28;20025;-67
2021/04/11 03:10:40;;;;;;;6.17;5.73;;;4.70;95.90;;;;;;4995925;28;20097;-67
2021/04/11 03:13:06;;;;;;;3.75;3.45;;;4.80;95.90;;;;;;4995513;28;20459;-67
2021/04/11 03:15:32;;;;;;;4.28;3.70;;;4.80;95.90;;;;;;4995011;28;20026;-67
2021/04/11 03:17:58;;;;;;;4.03;3.63;;;4.90;95.90;;;;;;4995327;28;20109;-66
2021/04/11 03:20:32;;;;;;;8.52;7.80;;;4.90;95.90;;;;;;4995848;28;20110;-66
2021/04/11 03:23:00;;;;;;;3.05;2.75;;;5.00;95.80;;;;;;4994669;28;20026;-66
2021/04/11 03:25:26;;;;;;;3.15;2.42;;;4.90;95.60;;;;;;4995594;28;20497;-67
2021/04/11 03:28:09;;;;;;;4.18;3.88;;;4.90;95.70;;;;;;4995036;28;20046;-66
2021/04/11 03:31:04;;;;;;;2.50;2.30;;;4.90;95.70;;;;;;4994749;28;20038;-67
2021/04/11 03:33:40;;;;;;;7.43;6.80;;;4.90;95.60;;;;;;4995446;28;20467;-65
2021/04/11 03:36:08;;;;;;;4.13;3.65;;;4.90;95.50;;;;;;4994596;28;20589;-65
2021/04/11 03:38:35;;;;;;;1.83;1.73;;;4.90;95.60;;;;;;4995445;28;20018;-67
2021/04/11 03:41:01;;;;;;;4.25;3.45;;;4.90;95.50;;;;;;4995091;28;20463;-66
2021/04/11 03:43:43;;;;;;;2.15;1.95;;;4.90;95.50;;;;;;4994703;28;20045;-66
2021/04/11 03:46:17;;;;;;;1.85;1.75;;;4.90;95.50;;;;;;4995148;28;20034;-66
2021/04/11 03:48:49;;;;;;;1.70;1.60;;;4.90;95.50;;;;;;4992258;28;20483;-65
2021/04/11 03:51:24;;;;;;;1.55;1.40;;;4.90;95.50;;;;;;4995448;28;20045;-66
2021/04/11 03:54:08;;;;;;;2.20;1.88;;;4.90;95.40;;;;;;4994529;28;20073;-66
2021/04/11 03:56:39;;;;;;;4.60;4.18;;;4.90;95.40;;;;;;4994183;28;20083;-66
2021/04/11 03:59:06;;;;;;;1.80;1.70;;;4.90;95.30;;;;;;4994775;28;20034;-65
2021/04/11 04:01:41;;;;;;;3.60;3.30;;;4.90;95.40;;;;;;4995045;28;20375;-67
2021/04/11 04:04:13;;;;;;;2.13;1.67;;;5.00;95.70;;;;;;4992804;28;20026;-67
2021/04/11 04:06:45;;;;;;;2.03;1.90;;;5.00;95.40;;;;;;4994863;28;20022;-66
2021/04/11 04:09:10;;;;;;;;;;;5.00;95.40;;;;;;4994593;28;20110;-66
2021/04/11 04:11:57;;;;;;;1.60;1.50;;;5.10;95.40;;;;;;4994713;28;20000;-67
2021/04/11 04:14:41;;;;;;;1.63;1.52;;;5.10;95.30;;;;;;4994752;28;20038;-67
2021/04/11 04:17:33;;;;;;;3.15;2.95;;;5.00;95.20;;;;;;4993643;28;20391;-67
2021/04/11 04:20:11;;;;;;;2.75;2.65;;;5.00;95.20;;;;;;4994425;28;20026;-66
2021/04/11 04:23:01;;;;;;;2.90;2.70;;;4.90;95.20;;;;;;4994651;28;20042;-65
2021/04/11 04:26:20;;;;;;;3.58;3.28;;;5.00;95.30;;;;;;4993972;28;20071;-66
2021/04/11 04:29:01;;;;;;;4.80;4.45;;;4.90;95.30;;;;;;4972497;28;20082;-66
2021/04/11 04:31:35;;;;;;;2.05;1.90;;;4.90;95.30;;;;;;4988537;28;20475;-65
2021/04/11 04:34:29;;;;;;;3.33;2.90;;;4.90;95.30;;;;;;4993966;28;20053;-66
2021/04/11 04:37:21;;;;;;;2.00;1.83;;;4.80;95.40;;;;;;4993811;28;20089;-67
2021/04/11 04:40:00;;;;;;;2.97;2.75;;;4.90;95.50;;;;;;4994044;28;20112;-66
2021/04/11 04:42:25;;;;;;;3.08;1.80;;;4.90;95.50;;;;;;4994330;28;20029;-66
2021/04/11 04:45:00;;;;;;;7.65;7.07;;;4.90;95.50;;;;;;4992988;28;20105;-66
2021/04/11 04:47:52;;;;;;;1.75;1.65;;;4.90;95.40;;;;;;4994100;28;20034;-64
2021/04/11 04:50:22;;;;;;;13.77;8.82;;;4.90;95.50;;;;;;4994339;28;20042;-65
2021/04/11 04:53:23;;;;;;;2.75;1.75;;;4.90;95.50;;;;;;4992919;28;20407;-64
2021/04/11 04:55:57;;;;;;;2.58;1.90;;;4.90;95.50;;;;;;4991598;28;20042;-65
2021/04/11 04:58:30;;;;;;;2.10;1.95;;;5.00;95.50;;;;;;4993274;28;20022;-65
2021/04/11 05:01:18;;;;;;;4.45;4.13;;;5.00;95.40;;;;;;4993671;28;20105;-67
2021/04/11 05:03:47;;;;;;;3.45;2.00;;;5.00;95.50;;;;;;4993529;28;20022;-66
2021/04/11 05:06:35;;;;;;;3.22;3.00;;;5.00;95.40;;;;;;4993135;28;20061;-65
2021/04/11 05:09:07;;;;;;;2.20;2.00;;;5.00;95.40;;;;;;4993319;28;20034;-67
2021/04/11 05:11:46;;;;;;;6.40;4.15;;;5.00;95.40;;;;;;4993845;28;20033;-66
2021/04/11 05:14:16;;;;;;;9.95;8.32;;;5.10;95.40;;;;;;4993069;28;20037;-67
2021/04/11 05:16:48;;;;;;;1.95;1.75;;;5.10;95.30;;;;;;4993511;28;20022;-66
2021/04/11 05:19:18;;;;;;;3.50;1.90;;;5.10;95.40;;;;;;4993619;28;20030;-66
2021/04/11 05:21:49;;;;;;;9.57;8.75;;;5.10;95.40;;;;;;4992606;28;20105;-66
2021/04/11 05:24:21;;;;;;;5.28;2.35;;;5.10;95.40;;;;;;4993559;28;20379;-67
2021/04/11 05:26:58;;;;;;;93.45;73.10;;;5.10;95.30;;;;;;4992473;28;20022;-66
2021/04/11 05:29:42;;;;;;;2.78;2.58;;;5.10;95.30;;;;;;4993408;28;20030;-67
2021/04/11 05:32:07;;;;;;;2.95;1.85;;;5.10;95.10;;;;;;4993096;28;20019;-66
2021/04/11 05:34:33;;;;;;;2.00;1.90;;;5.10;95.10;;;;;;4992480;28;20034;-67
2021/04/11 05:37:22;;;;;;;3.33;2.72;;;5.10;95.20;;;;;;4992929;28;20110;-67
2021/04/11 05:40:14;;;;;;;2.10;2.00;;;5.10;95.00;;;;;;4992742;28;20034;-68
2021/04/11 05:42:52;;;;;;;3.00;2.80;;;5.10;95.00;;;;;;4992642;28;20375;-67
2021/04/11 05:45:48;;;;;;;2.00;1.70;;;5.20;95.00;;;;;;4993341;28;20065;-67
2021/04/11 05:48:40;;;;;;;1.60;1.50;;;5.20;95.10;;;;;;4992426;28;20030;-66
2021/04/11 05:51:11;;;;;;;1.98;1.30;;;5.30;95.00;;;;;;4992905;28;20038;-66
2021/04/11 05:53:48;;;;;;;23.52;15.88;;;5.40;94.60;;;;;;4993102;28;20081;-67
2021/04/11 05:56:42;;;;;;;1.52;1.42;;;5.40;94.50;;;;;;4992482;28;20034;-67
2021/04/11 05:59:12;;;;;;;2.58;1.67;;;5.40;94.40;;;;;;4990420;28;20030;-67
2021/04/11 06:01:50;;;;;;;1.42;1.33;;;5.50;94.40;;;;;;4992290;28;20030;-66
2021/04/11 06:04:23;;;;;;;1.33;1.23;;;5.50;94.40;;;;;;4993140;28;20434;-66
2021/04/11 06:06:56;;;;;;;1.40;1.10;;;5.50;94.30;;;;;;4992404;28;20139;-66
2021/04/11 06:09:33;;;;;;;1.40;1.30;;;5.50;94.20;;;;;;4992371;28;20018;-66
2021/04/11 06:12:27;;;;;;;1.50;1.40;;;5.50;94.30;;;;;;4992537;28;20089;-66
2021/04/11 06:15:05;;;;;;;2.72;1.88;;;5.50;94.30;;;;;;4989772;28;20049;-67
2021/04/11 06:17:30;;;;;;;3.30;1.50;;;5.60;94.30;;;;;;4991999;28;20073;-67
2021/04/11 06:19:57;;;;;;;1.75;1.60;;;5.50;94.20;;;;;;4992465;28;20030;-66
2021/04/11 06:22:36;;;;;;;1.90;1.60;;;5.50;94.30;;;;;;4992810;28;20018;-66
2021/04/11 06:25:24;;;;;;;1.75;1.65;;;5.50;94.40;;;;;;4991894;28;20033;-66
2021/04/11 06:28:22;;;;;;;2.10;1.52;;;5.60;94.30;;;;;;4995991;28;20073;-66
2021/04/11 06:31:04;;;;;;;2.05;1.65;;;5.60;94.00;;;;;;4983807;28;20042;-66
2021/04/11 06:33:36;;;;;;;3.47;1.40;;;5.70;93.90;;;;;;4996727;28;20033;-66
2021/04/11 06:36:25;;;;;;;4.55;4.15;;;5.70;93.80;;;;;;4995968;28;20355;-65
2021/04/11 06:38:56;;;;;;;1.58;1.48;;;5.70;93.50;;;;;;4976153;28;20034;-66
2021/04/11 06:41:56;;;;;;;1.80;1.50;;;5.80;93.50;;;;;;4986987;28;20473;-66
2021/04/11 06:44:43;;;;;;;1.50;1.40;;;5.70;93.50;;;;;;4995851;28;20058;-65
2021/04/11 06:47:17;;;;;;;10.70;9.98;;;5.70;93.30;;;;;;4996284;28;20033;-65
2021/04/11 06:50:07;;;;;;;10.18;6.97;;;5.70;93.10;;;;;;4996168;28;20397;-67
2021/04/11 06:52:47;;;;;;;1.50;1.40;;;5.70;93.00;;;;;;4995688;28;20023;-65
2021/04/11 06:55:26;;;;;;;2.22;2.00;;;5.70;93.10;;;;;;4996261;28;20030;-66
2021/04/11 06:58:06;;;;;;;11.38;5.43;;;5.70;93.20;;;;;;4995087;28;20073;-66
2021/04/11 07:01:02;;;;;;;6.95;4.90;;;5.70;93.10;;;;;;4996149;28;20027;-68
2021/04/11 07:03:34;;;;;;;1.88;1.60;;;5.80;92.90;;;;;;4996247;28;20030;-66
2021/04/11 07:06:14;;;;;;;1.35;1.20;;;5.90;92.70;;;;;;4994673;28;20034;-66
2021/04/11 07:09:05;;;;;;;1.40;1.30;;;6.00;92.50;;;;;;4995794;28;20129;-66
2021/04/11 07:12:03;;;;;;;1.65;1.55;;;6.10;92.30;;;;;;4996180;28;20031;-66
2021/04/11 07:14:31;;;;;;;6.65;4.32;;;6.20;92.00;;;;;;4995516;28;20848;-67
2021/04/11 07:17:18;;;;;;;1.63;1.20;;;6.20;91.90;;;;;;4995126;28;20065;-68
2021/04/11 07:20:20;;;;;;;2.90;1.40;;;6.20;92.00;;;;;;4995055;28;20030;-69
2021/04/11 07:23:16;;;;;;;1.55;1.45;;;6.10;91.30;;;;;;4995223;28;20042;-67
2021/04/11 07:26:10;;;;;;;2.50;1.48;;;6.10;91.50;;;;;;4995152;28;20033;-67
2021/04/11 07:28:59;;;;;;;4.82;1.45;;;6.20;91.30;;;;;;4995629;28;20105;-66
2021/04/11 07:32:09;;;;;;;3.75;2.72;;;6.20;91.40;;;;;;4995585;28;20023;-65
2021/04/11 07:34:46;;;;;;;3.30;1.50;;;6.40;91.30;;;;;;4953774;29;20043;-67
2021/04/11 07:37:31;;;;;;;26.10;3.53;;;6.60;90.80;;;;;;4989774;28;20046;-66
2021/04/11 07:40:17;;;;;;;3.67;1.42;;;6.70;90.60;;;;;;4995197;28;20379;-66
2021/04/11 07:43:21;;;;;;;1.98;1.50;;;6.70;90.70;;;;;;4995367;28;20022;-69
2021/04/11 07:46:12;;;;;;;6.07;2.25;;;6.80;91.00;;;;;;4994819;28;20023;-68
2021/04/11 07:49:12;;;;;;;2.50;2.25;;;6.70;90.60;;;;;;4994012;28;20058;-64
2021/04/11 07:51:51;;;;;;;7.68;4.55;;;6.50;91.00;;;;;;4993839;28;20034;-68
2021/04/11 07:54:32;;;;;;;10.05;2.25;;;6.40;91.30;;;;;;4994662;28;20022;-65
2021/04/11 07:57:31;;;;;;;45.80;4.03;;;6.30;91.60;;;;;;4994262;28;20077;-69
2021/04/11 08:00:21;;;;;;;7.80;2.15;;;6.30;91.50;;;;;;4994737;28;20109;-66
2021/04/11 08:03:05;;;;;;;10.80;2.20;;;6.40;91.90;;;;;;4993725;28;20034;-66
2021/04/11 08:05:57;;;;;;;4.20;2.08;;;6.50;91.50;;;;;;4975500;28;20061;-65
2021/04/11 08:08:55;;;;;;;4.30;1.80;;;6.50;91.60;;;;;;4992851;28;20023;-68
2021/04/11 08:11:58;;;;;;;4.88;4.18;;;6.60;91.30;;;;;;4986329;28;20046;-66
2021/04/11 08:15:00;;;;;;;3.25;2.00;;;6.60;91.30;;;;;;4994748;28;20038;-66
2021/04/11 08:17:38;;;;;;;4.10;1.80;;;6.60;91.20;;;;;;4994002;28;20113;-67
2021/04/11 08:20:22;;;;;;;4.45;1.67;;;6.70;91.20;;;;;;4994337;28;20023;-66
2021/04/11 08:23:20;;;;;;;4.55;2.08;;;6.70;91.00;;;;;;4993361;28;20092;-66
2021/04/11 08:26:17;;;;;;;3.13;2.55;;;6.70;91.20;;;;;;4990856;28;20394;-66
2021/04/11 08:29:09;;;;;;;2.45;1.52;;;6.70;90.80;;;;;;4994480;28;20034;-69
2021/04/11 08:31:53;;;;;;;2.88;1.70;;;6.70;90.70;;;;;;4993722;28;20015;-68
2021/04/11 08:34:37;;;;;;;3.22;1.67;;;6.80;90.80;;;;;;4994526;28;20030;-67
2021/04/11 08:37:36;;;;;;;9.73;6.57;;;7.00;90.70;;;;;;4993348;28;20022;-68
2021/04/11 08:40:11;;;;;;;2.28;1.95;;;6.90;90.00;;;;;;4993627;28;20441;-69
2021/04/11 08:42:50;;;;;;;2.67;1.42;;;7.00;89.90;;;;;;4992615;28;20031;-68
2021/04/11 08:45:33;;;;;;;3.72;1.80;;;7.10;90.00;;;;;;4993697;28;20027;-68
2021/04/11 08:48:46;;;;;;;3.45;1.67;;;7.30;90.10;;;;;;4993675;28;20026;-66
2021/04/11 08:51:15;;;;;;;4.90;3.25;;;7.40;89.20;;;;;;4993398;28;20022;-65
2021/04/11 08:54:20;;;;;;;3.58;1.70;;;7.50;87.60;;;;;;4993844;28;20569;-67
2021/04/11 08:57:00;;;;;;;8.23;2.10;;;7.60;86.90;;;;;;4952086;28;20031;-66
2021/04/11 08:59:31;;;;;;;6.22;3.92;;;7.70;86.80;;;;;;4987239;28;20471;-69
2021/04/11 09:02:34;;;;;;;2.00;1.30;;;7.70;86.50;;;;;;4993586;28;20061;-68
2021/04/11 09:05:34;;;;;;;3.47;1.52;;;7.80;87.10;;;;;;4992752;28;20685;-70
2021/04/11 09:08:21;;;;;;;10.70;1.63;;;8.00;86.80;;;;;;4961889;28;20096;-69
2021/04/11 09:10:57;;;;;;;1.58;1.20;;;7.80;85.70;;;;;;4973873;28;20042;-70
2021/04/11 09:13:23;;;;;;;30.17;3.47;;;7.80;85.90;;;;;;4973920;28;20527;-70
2021/04/11 09:15:51;;;;;;;2.78;1.30;;;7.70;87.20;;;;;;4974008;28;20042;-69
2021/04/11 09:18:42;;;;;;;4.85;2.50;;;7.80;87.60;;;;;;4974181;28;20065;-67
2021/04/11 09:21:11;;;;;;;4.03;1.40;;;7.90;87.00;;;;;;4974061;28;20037;-69
2021/04/11 09:24:02;;;;;;;12.23;3.85;;;8.00;84.50;;;;;;4979943;28;20383;-72
2021/04/11 09:27:04;;;;;;;1.60;1.08;;;8.10;85.50;;;;;;4972651;28;20547;-70
2021/04/11 09:29:45;;;;;;;4.00;1.50;;;8.30;86.20;;;;;;4990954;28;20493;-69
2021/04/11 09:32:25;;;;;;;3.53;1.33;;;8.60;85.50;;;;;;4992284;28;20030;-70
2021/04/11 09:35:28;;;;;;;5.20;1.30;;;8.80;82.80;;;;;;4991140;28;20128;-68
2021/04/11 09:38:26;;;;;;;2.83;1.30;;;8.70;82.40;;;;;;4991908;28;20030;-70
2021/04/11 09:41:12;;;;;;;1.95;1.25;;;8.80;83.50;;;;;;4991263;28;20088;-73
2021/04/11 09:44:06;;;;;;;2.78;1.20;;;9.00;83.10;;;;;;4972682;28;20498;-69
2021/04/11 09:46:31;;;;;;;2.22;1.25;;;9.00;82.60;;;;;;4988404;28;20066;-69
2021/04/11 09:49:13;;;;;;;4.35;1.20;;;9.00;82.20;;;;;;4990865;28;20156;-67
2021/04/11 09:51:46;;;;;;;5.30;4.05;;;8.90;81.70;;;;;;4990170;28;20026;-68
2021/04/11 09:54:12;;;;;;;2.83;1.27;;;9.00;81.80;;;;;;4983107;28;20120;-69
2021/04/11 09:56:59;;;;;;;1.92;1.40;;;9.00;82.00;;;;;;4973360;28;20105;-68
2021/04/11 09:59:50;;;;;;;5.47;5.00;;;9.10;81.30;;;;;;4973504;28;20026;-70
2021/04/11 10:02:42;;;;;;;4.53;1.20;;;9.00;79.40;;;;;;4972851;28;20521;-70
2021/04/11 10:05:14;;;;;;;1.75;1.00;;;8.80;79.60;;;;;;4979745;28;20026;-71
2021/04/11 10:08:12;;;;;;;1.80;1.10;;;8.70;79.70;;;;;;4991134;28;20022;-71
2021/04/11 10:11:02;;;;;;;3.38;1.10;;;8.60;79.70;;;;;;4992469;28;20037;-71
2021/04/11 10:13:55;;;;;;;2.35;1.20;;;8.60;78.80;;;;;;4988559;28;20026;-67
2021/04/11 10:16:26;;;;;;;3.45;1.13;;;8.70;79.50;;;;;;4989702;28;20050;-67
2021/04/11 10:19:16;;;;;;;5.82;3.63;;;8.70;79.90;;;;;;4991204;28;20034;-67
2021/04/11 10:22:01;;;;;;;1.33;0.88;;;8.60;79.30;;;;;;4991554;28;20026;-67
2021/04/11 10:24:38;;;;;;;2.75;0.93;;;8.50;81.20;;;;;;4991132;28;20031;-66
2021/04/11 10:27:10;;;;;;;1.60;1.08;;;8.60;81.10;;;;;;4991615;28;20027;-68
2021/04/11 10:29:36;;;;;;;;;;;8.50;80.30;;;;;;4987191;28;20026;-66
2021/04/11 10:32:30;;;;;;;15.73;11.60;;;8.40;81.40;;;;;;4990978;28;20392;-67
2021/04/11 10:35:11;;;;;;;1.67;0.90;;;8.20;82.20;;;;;;4992382;28;20030;-68
2021/04/11 10:37:50;;;;;;;1.73;1.35;;;8.10;83.40;;;;;;4991553;28;20031;-66
2021/04/11 10:40:43;;;;;;;1.27;1.05;;;8.10;84.70;;;;;;4992300;28;20030;-67
2021/04/11 10:43:27;;;;;;;2.58;1.30;;;8.20;84.40;;;;;;4991830;28;20479;-67
2021/04/11 10:46:15;;;;;;;2.63;1.20;;;8.30;84.60;;;;;;4992125;28;20029;-67
2021/04/11 10:49:02;;;;;;;4.45;1.20;;;8.50;85.10;;;;;;4990813;28;20066;-67
2021/04/11 10:51:40;;;;;;;3.05;1.35;;;8.60;83.70;;;;;;4991888;28;20108;-66
2021/04/11 10:54:31;;;;;;;1.80;1.20;;;8.90;83.20;;;;;;4991992;28;20474;-67
2021/04/11 10:57:33;;;;;;;3.25;1.58;;;9.10;82.80;;;;;;4991825;28;20542;-66
2021/04/11 11:00:31;;;;;;;3.42;1.35;;;9.40;82.50;;;;;;4992145;28;20106;-65
2021/04/11 11:03:22;;;;;;;3.58;1.10;;;9.50;80.80;;;;;;4992082;28;20061;-65
2021/04/11 11:05:50;;;;;;;3.03;1.77;;;9.30;79.90;;;;;;4991417;28;20116;-66
2021/04/11 11:08:48;;;;;;;6.28;1.50;;;9.20;80.30;;;;;;4992298;28;20031;-66
2021/04/11 11:11:35;;;;;;;5.05;2.33;;;9.20;79.90;;;;;;4986830;28;20045;-67
2021/04/11 11:14:03;;;;;;;6.45;1.35;;;9.20;78.70;;;;;;4995306;28;20222;-67
2021/04/11 11:16:46;;;;;;;4.78;1.55;;;9.10;78.50;;;;;;4995904;28;20081;-68
2021/04/11 11:19:15;;;;;;;5.68;1.50;;;9.10;78.60;;;;;;4995324;28;20440;-66
2021/04/11 11:22:03;;;;;;;5.63;1.70;;;9.00;77.20;;;;;;4995671;28;20026;-67
2021/04/11 11:24:35;;;;;;;3.05;1.20;;;8.90;78.20;;;;;;4995782;28;20030;-66
2021/04/11 11:27:38;;;;;;;5.53;1.30;;;8.90;78.50;;;;;;4994498;28;20522;-66
2021/04/11 11:30:21;;;;;;;10.23;5.85;;;9.10;77.70;;;;;;4995198;28;20064;-67
2021/04/11 11:33:28;;;;;;;2.75;1.30;;;9.20;75.30;;;;;;4994262;28;20029;-67
2021/04/11 11:36:29;;;;;;;4.00;1.30;;;9.20;75.20;;;;;;4993649;28;20407;-66
2021/04/11 11:38:58;;;;;;;3.35;1.48;;;9.10;74.60;;;;;;4994930;28;20061;-66
2021/04/11 11:42:02;;;;;;;4.15;1.42;;;9.00;75.50;;;;;;4994662;28;20364;-66
2021/04/11 11:44:34;;;;;;;4.90;1.27;;;9.10;75.00;;;;;;4984330;28;20581;-66
2021/04/11 11:47:13;;;;;;;3.30;1.30;;;9.20;74.80;;;;;;4992878;28;20037;-65
2021/04/11 11:50:05;;;;;;;5.95;3.00;;;9.30;74.90;;;;;;4994849;28;20049;-66
2021/04/11 11:52:49;;;;;;;2.15;1.35;;;9.40;73.00;;;;;;4995150;28;20046;-67
2021/04/11 11:55:21;;;;;;;3.30;1.08;;;9.40;73.00;;;;;;4994522;28;20035;-66
2021/04/11 11:58:17;;;;;;;5.70;1.50;;;9.30;74.50;;;;;;4994364;28;20363;-67
2021/04/11 12:00:55;;;;;;;3.33;1.25;;;9.30;74.60;;;;;;4994308;28;20076;-68
2021/04/11 12:03:33;;;;;;;9.65;4.55;;;9.30;74.30;;;;;;4995146;28;20029;-66
2021/04/11 12:06:37;;;;;;;4.07;1.38;;;9.20;75.10;;;;;;4994648;28;20034;-66
2021/04/11 12:09:16;;;;;;;2.45;1.30;;;9.30;75.40;;;;;;4993694;28;20523;-66
2021/04/11 12:11:49;;;;;;;2.05;1.17;;;9.40;75.80;;;;;;4994805;28;20106;-66
2021/04/11 12:14:39;;;;;;;2.80;1.13;;;9.60;75.80;;;;;;4994668;28;20037;-65
2021/04/11 12:17:25;;;;;;;3.10;1.15;;;9.60;73.60;;;;;;4994365;28;20039;-66
2021/04/11 12:20:26;;;;;;;4.68;1.63;;;9.50;73.50;;;;;;4994307;28;20478;-67
2021/04/11 12:23:20;;;;;;;2.53;1.30;;;9.30;73.30;;;;;;4993138;28;20027;-66
2021/04/11 12:25:47;;;;;;;3.33;1.45;;;9.10;74.20;;;;;;4993832;28;20037;-66
2021/04/11 12:28:26;;;;;;;3.47;1.30;;;9.00;74.60;;;;;;4994324;28;20032;-66
2021/04/11 12:30:54;;;;;;;3.17;1.33;;;9.00;75.80;;;;;;4993961;28;20384;-66
2021/04/11 12:33:38;;;;;;;6.13;3.70;;;8.90;76.00;;;;;;4994318;28;20026;-67
2021/04/11 12:36:27;;;;;;;4.40;1.50;;;8.90;75.70;;;;;;4993218;28;20081;-67
2021/04/11 12:38:57;;;;;;;6.40;2.13;;;9.00;75.80;;;;;;4993350;28;20125;-66
2021/04/11 12:41:37;;;;;;;3.72;1.88;;;9.00;75.30;;;;;;4994361;28;20026;-66
2021/04/11 12:44:21;;;;;;;5.03;2.03;;;9.10;75.80;;;;;;4992977;28;20018;-66
2021/04/11 12:47:07;;;;;;;4.80;2.38;;;9.20;75.50;;;;;;4993604;28;20524;-66
2021/04/11 12:50:12;;;;;;;5.00;1.65;;;9.10;73.20;;;;;;4992978;28;20050;-66
2021/04/11 12:53:06;;;;;;;5.05;1.40;;;9.10;73.60;;;;;;4993802;28;20049;-66
2021/04/11 12:55:59;;;;;;;4.38;3.13;;;9.00;73.40;;;;;;4992442;28;20050;-67
2021/04/11 12:58:39;;;;;;;3.42;1.33;;;8.90;74.10;;;;;;4993104;28;20023;-66
2021/04/11 13:01:14;;;;;;;4.53;1.52;;;8.90;74.10;;;;;;4993470;28;20034;-66
2021/04/11 13:03:55;;;;;;;2.17;1.40;;;8.90;74.20;;;;;;4992999;28;20018;-67
2021/04/11 13:06:27;;;;;;;1.92;1.10;;;9.20;74.50;;;;;;4992424;28;20022;-66
2021/04/11 13:09:26;;;;;;;3.35;1.50;;;9.50;72.60;;;;;;4993211;28;20483;-67
2021/04/11 13:12:11;;;;;;;4.30;1.35;;;9.70;71.60;;;;;;4992519;28;20059;-66
2021/04/11 13:14:58;;;;;;;2.72;1.10;;;9.70;70.90;;;;;;4993555;28;20042;-66
2021/04/11 13:17:48;;;;;;;4.28;1.40;;;9.80;70.20;;;;;;4993520;28;20117;-66
2021/04/11 13:20:28;;;;;;;2.13;1.20;;;9.80;70.10;;;;;;4993534;28;20483;-67
2021/04/11 13:23:34;;;;;;;4.20;2.45;;;9.70;69.60;;;;;;4993086;28;20031;-67
2021/04/11 13:26:09;;;;;;;4.13;1.40;;;9.70;70.80;;;;;;4991870;28;20038;-66
2021/04/11 13:28:54;;;;;;;4.72;1.10;;;9.70;69.10;;;;;;4993468;28;20109;-65
2021/04/11 13:31:34;;;;;;;1.90;0.90;;;9.80;67.40;;;;;;4993360;28;20033;-67
2021/04/11 13:34:05;;;;;;;3.05;1.55;;;9.80;67.90;;;;;;4992293;28;20116;-66
2021/04/11 13:36:37;;;;;;;2.30;1.30;;;9.80;68.10;;;;;;4992847;28;20027;-67
2021/04/11 13:39:26;;;;;;;2.70;1.35;;;9.80;67.00;;;;;;4992354;28;20026;-66
2021/04/11 13:42:02;;;;;;;3.03;1.15;;;9.80;66.60;;;;;;4991443;28;20395;-66
2021/04/11 13:44:42;;;;;;;3.00;1.40;;;9.80;66.80;;;;;;4993214;28;20157;-66
2021/04/11 13:47:22;;;;;;;4.63;1.10;;;9.80;67.60;;;;;;4992040;28;20470;-67
2021/04/11 13:50:02;;;;;;;2.65;1.30;;;9.80;67.60;;;;;;4992493;28;20053;-66
2021/04/11 13:52:58;;;;;;;2.50;1.60;;;9.80;68.00;;;;;;4993226;28;20502;-66
2021/04/11 13:55:34;;;;;;;4.55;1.23;;;9.60;67.60;;;;;;4992947;28;20043;-66
2021/04/11 13:58:02;;;;;;;3.72;1.65;;;9.50;66.80;;;;;;4992661;28;20030;-66
2021/04/11 14:00:47;;;;;;;3.38;1.40;;;9.20;67.20;;;;;;4992751;28;20018;-67